Portada
METAR-TAF:

METAR-TAF

Aeroports :

Harrisburg-Raleigh Airport

Harrisburg, Illinois, Estats Units d'Amèrica

latitud: 37-48-41N, longitud: 088-32-57W, altitud: 121 m

Observació

L'informe es va fer fa 18 minuts, a les 23:15 UTC
Vent 10 kt del Sud
Temperatura 29°C
Humitat 66%
Pressió 1012 hPa
Visibilitat: 16.1 km
Cel clar

METAR: KHSB 242315Z AUTO 18010KT 10SM CLR 29/22 A2989 RMK AO2 T02900217

Hora: 18:33 (23:33 UTC)


TAF: manca

Observacions i pronòstics meteorològics de més de 4000 aeroports (METAR i TAF).

Les estacions disponibles són els punts grocs i vermells al mapa.

Posi el ratolí al punt desitjat per veure el nom de l'estació.

Feu clic per veure les observacions i els pronòstics meteorològics.

Per canviar el mapa: feu clic els botons verds amb una creu de color negre per apropar; al botó verd amb un guió per allunyar la imatge; o en les fletxes verdes per a mapes adjacents.


METAR-TAF: